Time;durP1;ratioP1;P1;durP2;ratioP2;P2;SDS_P1;SDS_P2;PMS_P1;PMS_P2;Temp;Humidity;BMP_temperature;BMP_pressure;BME280_temperature;BME280_humidity;BME280_pressure;Samples;Min_cycle;Max_cycle;Signal;HPM_P1;HPM_P2
2022/12/07 00:01:33;;;;;;;26.20;16.23;;;;;;;1.22;92.91;99886.16;4476064;31;32071;-86
2022/12/07 00:04:06;;;;;;;25.95;14.75;;;;;;;1.38;92.51;99883.19;4486663;31;33429;-86
2022/12/07 00:06:39;;;;;;;26.60;15.05;;;;;;;1.48;91.53;99888.28;4491042;31;33352;-86
2022/12/07 00:09:10;;;;;;;26.63;15.53;;;;;;;1.60;90.52;99883.28;4485133;31;34653;-86
2022/12/07 00:11:38;;;;;;;26.92;15.77;;;;;;;1.65;90.00;99883.66;4467888;31;33303;-86
2022/12/07 00:14:10;;;;;;;26.37;15.07;;;;;;;1.74;89.65;99880.19;4480741;32;33479;-86
2022/12/07 00:16:38;;;;;;;28.87;16.48;;;;;;;1.83;89.33;99868.94;4480525;31;33009;-86
2022/12/07 00:19:06;;;;;;;27.40;15.75;;;;;;;1.71;89.67;99869.72;4469193;31;33143;-86
2022/12/07 00:21:35;;;;;;;28.50;16.25;;;;;;;1.84;88.75;99865.63;4483125;31;33312;-86
2022/12/07 00:24:04;;;;;;;29.65;17.50;;;;;;;1.49;90.41;99867.09;4493602;31;33018;-86
2022/12/07 00:26:34;;;;;;;33.00;18.02;;;;;;;1.30;91.81;99864.69;4464891;31;31062;-86
2022/12/07 00:29:09;;;;;;;30.23;17.85;;;;;;;1.07;92.73;99865.34;4485610;31;33876;-86
2022/12/07 00:31:40;;;;;;;34.33;18.50;;;;;;;1.03;92.64;99867.53;4483166;31;33514;-86
2022/12/07 00:34:13;;;;;;;32.08;18.30;;;;;;;1.12;92.28;99869.19;4493565;31;33392;-86
2022/12/07 00:36:41;;;;;;;28.10;16.02;;;;;;;1.54;90.12;99864.91;4496408;31;33447;-86
2022/12/07 00:39:08;;;;;;;27.17;15.80;;;;;;;1.62;89.29;99853.66;4470276;31;33649;-86
2022/12/07 00:41:36;;;;;;;25.58;14.77;;;;;;;1.55;89.52;99856.50;4469084;31;32922;-86
2022/12/07 00:44:04;;;;;;;22.92;14.13;;;;;;;1.41;90.46;99860.50;4477081;31;33168;-87
2022/12/07 00:46:32;;;;;;;26.15;14.43;;;;;;;1.64;88.98;99862.34;4497757;31;33621;-86
2022/12/07 00:48:59;;;;;;;25.40;13.85;;;;;;;1.43;89.40;99858.03;4466486;31;34150;-87
2022/12/07 00:51:27;;;;;;;23.83;13.57;;;;;;;1.44;89.63;99864.94;4479430;31;33584;-87
2022/12/07 00:53:54;;;;;;;25.67;13.95;;;;;;;1.33;90.05;99864.06;4492918;31;33657;-87
2022/12/07 00:56:27;;;;;;;22.02;12.13;;;;;;;1.33;90.52;99861.50;4493291;31;35062;-87
2022/12/07 00:58:57;;;;;;;23.77;13.77;;;;;;;1.44;89.97;99857.28;4485093;31;34014;-87
2022/12/07 01:01:28;;;;;;;23.58;13.93;;;;;;;1.18;91.81;99863.72;4500383;31;33796;-87
2022/12/07 01:03:56;;;;;;;25.90;13.85;;;;;;;2.19;87.90;99857.31;4483711;31;33228;-86
2022/12/07 01:06:24;;;;;;;23.65;13.98;;;;;;;2.49;85.08;99846.91;4497944;31;34083;-87
2022/12/07 01:08:52;;;;;;;21.40;12.10;;;;;;;2.38;84.96;99852.84;4492118;31;33859;-86
2022/12/07 01:11:22;;;;;;;23.87;13.27;;;;;;;1.53;88.41;99842.72;4478889;31;32692;-87
2022/12/07 01:13:50;;;;;;;23.95;13.52;;;;;;;1.82;88.29;99849.28;4500174;31;34017;-87
2022/12/07 01:16:19;;;;;;;22.87;13.52;;;;;;;2.79;83.65;99846.56;4471390;31;32374;-87
2022/12/07 01:18:49;;;;;;;23.48;13.45;;;;;;;3.57;79.68;99847.25;4472008;31;34554;-86
2022/12/07 01:21:22;;;;;;;21.58;12.98;;;;;;;3.50;77.87;99847.63;4498210;31;33184;-87
2022/12/07 01:23:50;;;;;;;22.17;12.90;;;;;;;1.83;85.98;99853.59;4485546;31;32793;-86
2022/12/07 01:26:22;;;;;;;22.52;13.52;;;;;;;1.38;89.05;99850.03;4500099;31;33650;-86
2022/12/07 01:28:50;;;;;;;26.12;14.63;;;;;;;1.37;89.52;99845.66;4486037;31;33709;-87
2022/12/07 01:31:20;;;;;;;23.33;13.98;;;;;;;1.18;90.35;99844.19;4484380;31;34244;-86
2022/12/07 01:33:50;;;;;;;23.12;12.35;;;;;;;1.55;88.93;99846.28;4478967;31;34338;-86
2022/12/07 01:36:23;;;;;;;21.12;13.15;;;;;;;1.34;90.64;99843.78;4482395;31;33448;-86
2022/12/07 01:38:56;;;;;;;23.65;12.77;;;;;;;1.42;89.56;99843.50;4472269;31;33667;-86
2022/12/07 01:41:30;;;;;;;22.67;12.37;;;;;;;1.04;91.02;99843.78;4483628;31;33460;-86
2022/12/07 01:44:09;;;;;;;22.98;13.55;;;;;;;0.83;92.38;99838.72;4481212;31;34163;-86
2022/12/07 01:46:38;;;;;;;24.08;13.77;;;;;;;0.82;93.11;99847.13;4492178;31;33861;-86
2022/12/07 01:49:09;;;;;;;24.70;13.07;;;;;;;0.97;92.60;99843.28;4490320;31;33897;-86
2022/12/07 01:51:37;;;;;;;23.52;12.88;;;;;;;0.90;93.57;99846.09;4490526;31;33275;-86
2022/12/07 01:54:05;;;;;;;22.95;12.90;;;;;;;1.17;92.62;99842.38;4485547;31;32519;-86
2022/12/07 01:56:33;;;;;;;24.12;12.70;;;;;;;1.15;92.11;99827.72;4461313;32;33156;-86
2022/12/07 01:59:00;;;;;;;21.55;11.98;;;;;;;1.33;92.34;99836.91;4482887;31;34208;-86
2022/12/07 02:01:28;;;;;;;21.37;11.95;;;;;;;1.48;90.60;99824.47;4482266;31;33854;-86
2022/12/07 02:03:56;;;;;;;20.73;11.85;;;;;;;1.61;90.41;99828.03;4478901;32;34052;-86
2022/12/07 02:06:24;;;;;;;19.55;11.48;;;;;;;1.89;89.44;99828.53;4498637;31;34172;-86
2022/12/07 02:08:52;;;;;;;20.25;10.35;;;;;;;1.88;89.37;99829.34;4485477;31;34530;-86
2022/12/07 02:11:20;;;;;;;21.52;11.23;;;;;;;1.80;89.65;99820.16;4485532;31;33624;-86
2022/12/07 02:13:48;;;;;;;18.40;10.63;;;;;;;1.91;88.94;99822.81;4499991;31;34013;-86
2022/12/07 02:16:38;;;;;;;23.87;10.60;;;;;;;1.87;89.22;99825.84;4485048;31;33770;-86
2022/12/07 02:19:39;;;;;;;20.85;11.05;;;;;;;1.73;89.76;99827.31;4483235;31;32536;-86
2022/12/07 02:22:12;;;;;;;20.12;11.12;;;;;;;1.96;90.36;99833.37;4477277;31;33875;-86
2022/12/07 02:24:53;;;;;;;22.27;11.43;;;;;;;1.94;89.47;99822.16;4498983;31;33792;-86
2022/12/07 02:27:46;;;;;;;18.92;10.90;;;;;;;2.09;89.51;99828.47;4485587;31;34598;-86
2022/12/07 02:30:19;;;;;;;24.00;10.77;;;;;;;2.12;88.69;99831.25;4491709;31;33550;-86
2022/12/07 02:33:00;;;;;;;20.00;10.48;;;;;;;2.12;89.05;99821.03;4478573;32;34919;-86
2022/12/07 02:35:32;;;;;;;19.17;9.88;;;;;;;2.29;88.23;99826.56;4472610;31;32997;-86
2022/12/07 02:38:12;;;;;;;17.35;9.90;;;;;;;2.44;87.91;99830.31;4485172;31;34624;-86
2022/12/07 02:40:48;;;;;;;17.92;9.85;;;;;;;2.23;88.87;99828.66;4494908;31;33920;-86
2022/12/07 02:43:24;;;;;;;16.87;9.60;;;;;;;2.46;88.10;99813.41;4491749;31;33767;-86
2022/12/07 02:45:55;;;;;;;14.75;8.60;;;;;;;2.69;87.27;99824.53;4484918;31;32489;-86
2022/12/07 02:48:23;;;;;;;17.90;9.63;;;;;;;3.37;83.65;99815.09;4477788;31;33417;-86
2022/12/07 02:50:52;;;;;;;18.33;9.63;;;;;;;2.89;85.41;99814.12;4484644;31;32678;-86
2022/12/07 02:53:30;;;;;;;15.25;8.60;;;;;;;2.93;85.64;99815.25;4491883;31;33555;-86
2022/12/07 02:56:01;;;;;;;13.98;8.18;;;;;;;2.44;86.92;99817.53;4499031;31;34495;-86
2022/12/07 02:58:32;;;;;;;13.82;8.77;;;;;;;2.50;87.25;99812.88;4481526;31;34168;-86
2022/12/07 03:01:24;;;;;;;17.30;10.02;;;;;;;2.42;88.13;99802.84;4477400;31;34021;-86
2022/12/07 03:04:03;;;;;;;18.33;10.68;;;;;;;2.37;88.72;99811.03;4467919;31;32896;-86
2022/12/07 03:06:38;;;;;;;19.95;11.12;;;;;;;2.25;89.68;99805.00;4469243;31;32695;-86
2022/12/07 03:09:30;;;;;;;22.23;11.95;;;;;;;1.74;92.57;99813.81;4483690;31;33602;-86
2022/12/07 03:12:14;;;;;;;20.48;12.18;;;;;;;1.86;93.29;99813.00;4495859;31;34579;-86
2022/12/07 03:14:46;;;;;;;22.08;12.68;;;;;;;1.63;94.20;99803.50;4481940;31;33920;-86
2022/12/07 03:17:16;;;;;;;21.80;11.88;;;;;;;1.73;94.70;99806.88;4482499;31;33374;-86
2022/12/07 03:19:45;;;;;;;25.10;12.00;;;;;;;1.67;94.95;99806.41;4474285;32;33169;-86
2022/12/07 03:22:13;;;;;;;19.95;11.52;;;;;;;1.72;95.27;99800.03;4470408;31;32684;-86
2022/12/07 03:24:52;;;;;;;21.95;11.57;;;;;;;2.05;94.09;99805.09;4465680;32;35100;-86
2022/12/07 03:27:22;;;;;;;19.92;10.68;;;;;;;2.69;91.47;99798.94;4479985;32;33130;-86
2022/12/07 03:29:54;;;;;;;18.45;10.35;;;;;;;2.95;89.30;99796.69;4477766;31;33868;-86
2022/12/07 03:32:30;;;;;;;18.77;10.57;;;;;;;3.31;87.66;99789.03;4482818;31;34443;-86
2022/12/07 03:35:16;;;;;;;18.45;10.20;;;;;;;3.94;85.34;99797.00;4468885;31;32330;-86
2022/12/07 03:37:52;;;;;;;17.98;9.77;;;;;;;4.89;80.42;99792.41;4480215;31;31873;-86
2022/12/07 03:40:23;;;;;;;16.40;9.55;;;;;;;3.54;83.95;99798.41;4468256;32;33938;-86
2022/12/07 03:42:51;;;;;;;17.02;9.70;;;;;;;3.49;86.01;99799.72;4467404;32;32895;-86
2022/12/07 03:45:24;;;;;;;15.65;9.05;;;;;;;2.87;87.54;99797.75;4471948;32;34419;-86
2022/12/07 03:48:16;;;;;;;14.63;8.57;;;;;;;3.22;85.14;99809.72;4472403;32;33369;-86
2022/12/07 03:51:16;;;;;;;16.50;7.47;;;;;;;3.93;83.56;99804.59;4480042;32;33451;-86
2022/12/07 03:53:48;;;;;;;15.27;8.32;;;;;;;2.87;87.00;99805.44;4475170;32;33804;-86
2022/12/07 03:56:16;;;;;;;35.03;15.27;;;;;;;2.28;90.36;99820.56;4483195;32;34548;-86
2022/12/07 03:58:44;;;;;;;23.35;12.68;;;;;;;2.37;91.02;99825.50;4480100;32;33084;-86
2022/12/07 04:01:12;;;;;;;23.00;12.13;;;;;;;2.24;91.92;99817.63;4482244;32;34260;-86
2022/12/07 04:03:39;;;;;;;20.05;10.68;;;;;;;2.35;91.78;99806.59;4481706;32;33929;-86
2022/12/07 04:06:07;;;;;;;18.30;10.43;;;;;;;2.26;93.00;99810.97;4478845;32;32425;-86
2022/12/07 04:08:34;;;;;;;27.00;12.45;;;;;;;2.41;92.10;99811.28;4474293;32;33327;-86
2022/12/07 04:11:02;;;;;;;25.70;11.05;;;;;;;2.41;92.43;99817.28;4482529;32;33571;-86
2022/12/07 04:13:29;;;;;;;16.42;8.68;;;;;;;2.53;92.09;99808.00;4483808;32;33523;-86
2022/12/07 04:15:56;;;;;;;15.20;8.57;;;;;;;2.62;91.85;99812.91;4483351;32;33659;-86
2022/12/07 04:18:24;;;;;;;23.80;12.05;;;;;;;2.84;91.03;99805.22;4481833;32;32883;-86
2022/12/07 04:20:52;;;;;;;26.00;12.88;;;;;;;2.60;92.10;99808.47;4480046;32;34116;-86
2022/12/07 04:23:19;;;;;;;31.00;14.35;;;;;;;3.62;88.57;99816.88;4483733;32;33810;-86
2022/12/07 04:25:48;;;;;;;25.80;11.82;;;;;;;4.68;82.30;99801.22;4483180;32;34449;-86
2022/12/07 04:28:15;;;;;;;17.98;9.63;;;;;;;4.87;80.66;99806.81;4482713;32;33158;-86
2022/12/07 04:30:45;;;;;;;16.77;9.05;;;;;;;4.79;81.82;99804.50;4475183;32;32572;-86
2022/12/07 04:33:13;;;;;;;18.80;10.48;;;;;;;4.89;82.15;99802.66;4478215;32;34478;-86
2022/12/07 04:35:42;;;;;;;16.08;9.75;;;;;;;4.96;82.07;99801.38;4480161;32;33796;-86
2022/12/07 04:38:09;;;;;;;19.30;9.45;;;;;;;5.37;80.80;99807.47;4480736;32;33384;-86
2022/12/07 04:40:37;;;;;;;20.33;10.73;;;;;;;5.54;79.39;99799.19;4470671;32;33812;-86
2022/12/07 04:43:05;;;;;;;18.65;9.95;;;;;;;5.32;80.11;99804.63;4466574;32;32720;-86
2022/12/07 04:45:32;;;;;;;18.42;10.13;;;;;;;5.39;80.88;99795.63;4465901;32;33684;-86
2022/12/07 04:48:00;;;;;;;16.90;10.10;;;;;;;4.88;83.47;99800.88;4468933;32;34081;-86
2022/12/07 04:50:49;;;;;;;17.10;9.88;;;;;;;5.48;80.77;99809.97;4465904;32;34564;-86
2022/12/07 04:53:17;;;;;;;16.12;9.18;;;;;;;5.37;80.48;99807.47;4461212;32;32907;-86
2022/12/07 04:55:45;;;;;;;15.60;9.80;;;;;;;5.23;81.37;99810.03;4469995;32;33899;-86
2022/12/07 04:58:13;;;;;;;18.65;9.98;;;;;;;5.14;81.85;99819.72;4470269;32;33908;-86
2022/12/07 05:00:41;;;;;;;18.17;9.90;;;;;;;5.31;81.66;99813.09;4452872;32;33882;-86
2022/12/07 05:03:08;;;;;;;17.60;9.50;;;;;;;5.36;81.45;99816.88;4468428;32;34315;-86
2022/12/07 05:05:35;;;;;;;19.05;10.23;;;;;;;5.79;79.50;99816.19;4469342;32;34328;-86
2022/12/07 05:08:04;;;;;;;18.25;9.65;;;;;;;5.83;78.90;99811.37;4469967;32;33927;-86
2022/12/07 05:10:31;;;;;;;18.10;8.85;;;;;;;5.97;77.99;99814.84;4468264;32;32017;-86
2022/12/07 05:12:59;;;;;;;16.30;9.20;;;;;;;5.20;80.64;99812.41;4469978;32;34714;-86
2022/12/07 05:15:26;;;;;;;18.15;10.15;;;;;;;4.60;84.61;99816.09;4469711;32;33470;-86
2022/12/07 05:17:54;;;;;;;15.32;9.20;;;;;;;4.03;87.88;99817.25;4468595;32;33484;-86
2022/12/07 05:20:21;;;;;;;19.33;9.30;;;;;;;4.00;88.16;99816.16;4468549;32;34598;-86
2022/12/07 05:22:49;;;;;;;19.77;10.63;;;;;;;4.17;87.27;99814.78;4452844;32;33902;-86
2022/12/07 05:25:16;;;;;;;19.48;9.93;;;;;;;4.33;86.23;99812.53;4468353;32;34063;-86
2022/12/07 05:27:44;;;;;;;19.20;11.20;;;;;;;4.13;87.57;99819.72;4464958;32;33314;-87
2022/12/07 05:30:12;;;;;;;21.27;10.55;;;;;;;3.86;89.01;99804.94;4464995;32;32419;-87
2022/12/07 05:32:39;;;;;;;19.00;10.98;;;;;;;3.44;91.84;99796.84;4467750;32;33758;-87
2022/12/07 05:35:07;;;;;;;19.48;11.70;;;;;;;3.80;90.99;99814.75;4468205;32;34565;-87
2022/12/07 05:37:35;;;;;;;20.98;11.32;;;;;;;3.86;89.59;99804.94;4467164;32;33601;-87
2022/12/07 05:40:04;;;;;;;21.37;12.55;;;;;;;3.67;91.53;99800.16;4451978;32;33636;-87
2022/12/07 05:42:31;;;;;;;22.75;13.30;;;;;;;3.78;91.32;99803.50;4468543;32;34690;-87
2022/12/07 05:44:59;;;;;;;22.33;13.20;;;;;;;3.33;93.70;99806.28;4460993;32;32857;-87
2022/12/07 05:47:27;;;;;;;24.92;13.00;;;;;;;3.53;92.94;99806.84;4462361;32;33539;-86
2022/12/07 05:49:54;;;;;;;25.67;13.65;;;;;;;3.79;91.79;99805.28;4457414;32;32986;-86
2022/12/07 05:52:22;;;;;;;26.42;14.20;;;;;;;3.42;93.73;99802.59;4468638;32;33585;-87
2022/12/07 05:54:50;;;;;;;22.25;12.70;;;;;;;3.56;93.71;99804.53;4468308;32;34009;-87
2022/12/07 05:57:18;;;;;;;27.75;14.55;;;;;;;4.75;88.42;99798.28;4449146;32;32490;-87
2022/12/07 05:59:45;;;;;;;26.48;15.27;;;;;;;5.20;85.34;99804.72;4469582;32;34011;-87
2022/12/07 06:02:15;;;;;;;27.65;14.20;;;;;;;4.53;87.08;99804.50;4478416;32;34615;-87
2022/12/07 06:04:45;;;;;;;21.83;14.52;;;;;;;4.37;88.86;99804.25;4440193;32;33056;-87
2022/12/07 06:07:14;;;;;;;23.83;13.50;;;;;;;5.19;85.44;99802.91;4469192;32;33800;-87
2022/12/07 06:09:42;;;;;;;24.67;13.20;;;;;;;5.68;82.75;99810.37;4455119;32;34604;-87
2022/12/07 06:14:57;;;;;;;22.00;13.45;;;;;;;5.86;81.75;99806.41;4469779;32;33676;-87
2022/12/07 06:17:25;;;;;;;23.77;14.05;;;;;;;6.29;79.46;99805.66;4467449;32;33506;-87
2022/12/07 06:19:53;;;;;;;22.13;12.32;;;;;;;6.45;78.64;99805.81;4458821;32;33433;-87
2022/12/07 06:22:20;;;;;;;27.17;12.98;;;;;;;6.39;78.85;99801.97;4466912;32;34304;-87
2022/12/07 06:24:48;;;;;;;25.90;12.65;;;;;;;6.87;76.34;99798.88;4458164;32;32921;-87
2022/12/07 06:27:15;;;;;;;23.12;11.70;;;;;;;6.66;76.54;99797.59;4446760;32;32189;-87
2022/12/07 06:29:43;;;;;;;24.17;11.85;;;;;;;5.79;80.30;99803.34;4449986;32;33378;-86
2022/12/07 06:32:11;;;;;;;24.48;12.05;;;;;;;5.58;81.11;99808.91;4464387;32;36051;-87
2022/12/07 06:34:39;;;;;;;24.55;12.18;;;;;;;5.17;83.03;99807.06;4471742;32;33856;-87
2022/12/07 06:37:07;;;;;;;27.98;13.65;;;;;;;4.89;84.67;99812.94;4472175;32;33863;-87
2022/12/07 06:39:34;;;;;;;25.55;13.10;;;;;;;5.03;84.00;99811.28;4462764;31;34598;-87
2022/12/07 06:42:02;;;;;;;25.88;13.65;;;;;;;4.81;85.57;99811.53;4498431;31;33594;-87
2022/12/07 06:44:30;;;;;;;36.58;16.12;;;;;;;4.90;85.41;99819.84;4496720;31;32249;-86
2022/12/07 06:46:57;;;;;;;31.42;14.32;;;;;;;4.46;87.55;99820.28;4483598;31;34193;-87
2022/12/07 06:49:45;;;;;;;29.55;15.60;;;;;;;4.23;88.90;99825.47;4481141;31;33926;-87
2022/12/07 06:52:13;;;;;;;27.75;13.55;;;;;;;4.09;89.39;99833.06;4484103;31;33484;-87
2022/12/07 06:54:40;;;;;;;26.45;14.82;;;;;;;4.39;88.92;99828.34;4470342;31;32438;-87
2022/12/07 06:57:08;;;;;;;24.25;12.57;;;;;;;4.16;89.89;99839.53;4469285;31;31813;-87
2022/12/07 06:59:35;;;;;;;26.98;15.45;;;;;;;4.11;90.15;99840.87;4493330;31;33923;-87
2022/12/07 07:02:03;;;;;;;30.08;15.48;;;;;;;4.13;90.12;99839.31;4483390;31;33358;-87
2022/12/07 07:04:31;;;;;;;29.08;14.70;;;;;;;4.07;90.72;99834.63;4494068;31;33753;-87
2022/12/07 07:06:59;;;;;;;27.80;15.48;;;;;;;4.24;90.52;99832.38;4476200;31;33547;-87
2022/12/07 07:09:27;;;;;;;24.33;13.40;;;;;;;4.27;89.66;99835.19;4471894;31;34663;-87
2022/12/07 07:11:54;;;;;;;30.15;15.73;;;;;;;4.47;89.55;99826.28;4477312;31;34643;-87
2022/12/07 07:14:22;;;;;;;24.48;13.93;;;;;;;4.53;88.83;99822.47;4479405;31;33561;-87
2022/12/07 07:16:49;;;;;;;27.00;14.82;;;;;;;5.89;83.07;99821.13;4497162;31;34076;-87
2022/12/07 07:19:17;;;;;;;33.53;17.98;;;;;;;5.18;84.35;99826.84;4493110;31;33667;-87
2022/12/07 07:21:44;;;;;;;32.85;16.67;;;;;;;4.97;86.70;99831.41;4493746;31;34612;-87
2022/12/07 07:24:12;;;;;;;28.35;14.27;;;;;;;4.57;88.28;99833.84;4491289;31;33814;-87
2022/12/07 07:26:40;;;;;;;27.95;15.48;;;;;;;4.29;90.40;99838.75;4487641;31;33535;-87
2022/12/07 07:29:07;;;;;;;29.05;14.63;;;;;;;4.07;91.68;99834.63;4491655;31;33583;-87
2022/12/07 07:31:35;;;;;;;29.98;15.38;;;;;;;4.10;91.17;99834.88;4494191;31;34611;-87
2022/12/07 07:34:03;;;;;;;24.73;14.55;;;;;;;4.09;92.00;99837.31;4489915;31;33944;-86
2022/12/07 07:36:30;;;;;;;29.85;14.77;;;;;;;4.17;91.68;99845.53;4482328;31;34189;-87
2022/12/07 07:38:58;;;;;;;27.13;13.98;;;;;;;4.01;92.84;99833.31;4498673;31;34126;-87
2022/12/07 07:41:25;;;;;;;29.58;14.57;;;;;;;4.06;92.55;99842.25;4481025;31;33081;-87
2022/12/07 07:43:53;;;;;;;30.00;15.73;;;;;;;4.08;92.73;99840.69;4481249;31;33873;-86
2022/12/07 07:46:20;;;;;;;33.97;16.45;;;;;;;4.14;92.64;99836.84;4479355;31;31415;-87
2022/12/07 07:48:48;;;;;;;28.87;15.57;;;;;;;3.98;93.39;99839.13;4487061;31;34185;-86
2022/12/07 07:51:16;;;;;;;30.77;15.85;;;;;;;4.28;91.91;99836.94;4473096;31;33760;-87
2022/12/07 07:53:43;;;;;;;32.13;15.57;;;;;;;4.22;93.04;99839.09;4479675;31;34318;-87
2022/12/07 07:56:11;;;;;;;29.45;15.05;;;;;;;3.97;94.23;99845.03;4499733;31;33404;-86
2022/12/07 07:58:39;;;;;;;38.63;18.75;;;;;;;3.93;95.12;99840.47;4499762;31;33296;-86
2022/12/07 08:01:07;;;;;;;33.25;18.30;;;;;;;3.89;95.13;99844.47;4498612;31;33381;-87
2022/12/07 08:03:35;;;;;;;35.35;18.25;;;;;;;4.09;94.94;99845.00;4494940;31;33519;-86
2022/12/07 08:06:03;;;;;;;31.35;16.75;;;;;;;3.89;95.47;99848.72;4497161;31;33457;-86
2022/12/07 08:08:32;;;;;;;29.92;17.02;;;;;;;3.87;96.23;99840.03;4484529;31;33769;-86
2022/12/07 08:11:01;;;;;;;33.88;16.35;;;;;;;4.25;93.61;99839.28;4484368;31;34029;-87
2022/12/07 08:13:28;;;;;;;33.83;16.48;;;;;;;4.89;92.50;99825.78;4499498;31;33404;-86
2022/12/07 08:15:58;;;;;;;33.90;17.23;;;;;;;5.72;87.09;99836.38;4491478;31;33449;-87
2022/12/07 08:18:26;;;;;;;29.45;16.75;;;;;;;4.65;91.96;99836.94;4467250;31;33417;-86
2022/12/07 08:20:59;;;;;;;34.47;18.00;;;;;;;4.10;94.66;99846.81;4472195;31;33167;-87
2022/12/07 08:23:27;;;;;;;32.33;17.67;;;;;;;4.10;96.25;99852.81;4485445;31;33564;-86
2022/12/07 08:26:11;;;;;;;29.40;16.27;;;;;;;4.27;95.39;99851.44;4501805;31;34061;-86
2022/12/07 08:28:39;;;;;;;36.50;19.35;;;;;;;4.42;95.25;99843.03;4490304;31;33829;-86
2022/12/07 08:31:10;;;;;;;38.50;18.90;;;;;;;4.18;95.36;99850.78;4485656;31;34533;-86
2022/12/07 08:33:39;;;;;;;34.10;18.98;;;;;;;4.31;95.75;99847.44;4491660;31;33671;-87
2022/12/07 08:36:11;;;;;;;35.15;18.70;;;;;;;4.49;95.01;99850.38;4479932;32;33499;-87
2022/12/07 08:38:40;;;;;;;31.00;17.52;;;;;;;5.11;91.31;99850.31;4477934;31;33813;-87
2022/12/07 08:41:18;;;;;;;30.02;18.30;;;;;;;5.33;90.18;99852.62;4492560;31;34337;-87
2022/12/07 08:43:45;;;;;;;34.03;18.00;;;;;;;5.27;90.64;99853.12;4495976;31;33460;-87
2022/12/07 08:46:20;;;;;;;31.30;16.75;;;;;;;5.25;91.70;99848.66;4491228;31;33453;-87
2022/12/07 08:48:49;;;;;;;28.45;14.98;;;;;;;5.96;88.13;99843.91;4485020;31;33004;-87
2022/12/07 08:51:17;;;;;;;28.50;13.98;;;;;;;6.63;84.64;99841.19;4486704;31;35108;-87
2022/12/07 08:53:45;;;;;;;27.05;13.93;;;;;;;6.91;81.62;99848.87;4501037;31;34483;-87
2022/12/07 08:56:13;;;;;;;23.60;13.85;;;;;;;6.60;82.90;99851.28;4500724;31;33714;-87
2022/12/07 08:58:41;;;;;;;23.62;13.13;;;;;;;6.03;84.02;99856.34;4501128;31;33857;-87
2022/12/07 09:01:08;;;;;;;22.25;13.95;;;;;;;5.69;87.74;99848.13;4500655;31;33708;-87
2022/12/07 09:03:36;;;;;;;31.95;15.82;;;;;;;4.76;91.68;99851.38;4470575;31;31644;-87
2022/12/07 09:06:04;;;;;;;32.92;18.67;;;;;;;5.32;91.67;99851.75;4484764;31;33535;-87
2022/12/07 09:08:41;;;;;;;27.62;14.75;;;;;;;5.77;86.62;99848.63;4487064;31;34464;-87
2022/12/07 09:11:09;;;;;;;28.75;14.68;;;;;;;5.55;88.68;99854.94;4498569;31;33483;-87
2022/12/07 09:13:37;;;;;;;24.45;13.93;;;;;;;4.96;91.51;99854.41;4492656;31;33446;-87
2022/12/07 09:16:04;;;;;;;25.70;14.55;;;;;;;4.66;92.33;99848.97;4492248;31;33208;-87
2022/12/07 09:18:32;;;;;;;28.87;15.30;;;;;;;4.64;93.08;99846.31;4480684;31;32381;-87
2022/12/07 09:21:00;;;;;;;25.35;14.70;;;;;;;4.93;91.88;99842.28;4492950;31;33777;-87
2022/12/07 09:23:27;;;;;;;26.50;15.18;;;;;;;4.78;92.51;99844.69;4481505;31;33889;-87
2022/12/07 09:26:00;;;;;;;32.13;16.35;;;;;;;4.51;92.83;99834.28;4488825;31;33379;-87
2022/12/07 09:28:30;;;;;;;26.27;14.77;;;;;;;4.86;92.28;99838.38;4475694;32;32400;-87
2022/12/07 09:30:58;;;;;;;26.48;15.13;;;;;;;4.68;93.06;99837.16;4467408;31;33328;-87
2022/12/07 09:33:46;;;;;;;29.45;15.45;;;;;;;4.62;93.64;99834.16;4499577;31;33538;-87
2022/12/07 09:36:23;;;;;;;29.50;15.27;;;;;;;5.08;91.25;99834.69;4466997;32;32011;-87
2022/12/07 09:38:53;;;;;;;29.73;16.50;;;;;;;5.26;89.87;99840.19;4472088;31;32683;-87
2022/12/07 09:41:22;;;;;;;25.40;15.25;;;;;;;5.26;90.60;99830.78;4485780;31;33237;-88
2022/12/07 09:43:50;;;;;;;25.37;15.15;;;;;;;5.40;89.65;99823.09;4486072;31;34485;-87
2022/12/07 09:46:19;;;;;;;24.23;14.18;;;;;;;6.04;86.55;99821.22;4486564;31;33390;-87
2022/12/07 09:48:48;;;;;;;24.52;14.75;;;;;;;5.36;88.30;99823.69;4473527;31;33219;-87
2022/12/07 09:51:22;;;;;;;24.85;13.95;;;;;;;5.32;87.92;99820.91;4473830;31;33536;-88
2022/12/07 09:53:54;;;;;;;21.52;12.13;;;;;;;5.22;88.83;99812.53;4486566;31;34039;-87
2022/12/07 09:56:22;;;;;;;22.30;12.85;;;;;;;5.19;88.13;99820.91;4471221;31;33311;-88
2022/12/07 09:58:57;;;;;;;24.30;13.48;;;;;;;5.43;87.39;99818.19;4485209;31;33800;-88
2022/12/07 10:01:24;;;;;;;23.55;12.75;;;;;;;5.75;86.57;99811.66;4485117;31;33907;-88
2022/12/07 10:03:55;;;;;;;20.10;11.85;;;;;;;5.85;84.09;99814.91;4486614;31;33606;-88
2022/12/07 10:06:23;;;;;;;21.95;12.75;;;;;;;5.40;86.31;99823.09;4486602;31;32635;-86
2022/12/07 10:08:50;;;;;;;19.85;11.75;;;;;;;5.28;87.67;99829.22;4499232;31;33493;-87
2022/12/07 10:11:18;;;;;;;21.02;11.82;;;;;;;5.71;85.67;99816.56;4484263;31;33484;-87
2022/12/07 10:13:48;;;;;;;19.10;11.23;;;;;;;5.55;85.33;99816.41;4479566;31;33256;-87
2022/12/07 10:16:34;;;;;;;21.80;10.73;;;;;;;6.39;83.11;99810.56;4485857;31;34165;-87
2022/12/07 10:19:17;;;;;;;19.08;11.18;;;;;;;5.62;85.06;99810.87;4477516;31;34431;-87
2022/12/07 10:22:15;;;;;;;21.58;12.25;;;;;;;6.10;84.29;99816.47;4494917;31;33802;-87
2022/12/07 10:24:46;;;;;;;20.70;11.90;;;;;;;6.38;82.41;99808.78;4481594;31;31280;-87
2022/12/07 10:27:30;;;;;;;18.45;10.27;;;;;;;6.66;81.74;99792.44;4497795;31;33076;-87
2022/12/07 10:29:58;;;;;;;19.65;9.80;;;;;;;5.96;82.85;99802.75;4482690;31;30929;-87
2022/12/07 10:32:36;;;;;;;19.30;11.20;;;;;;;6.33;82.75;99805.03;4481957;31;34510;-88
2022/12/07 10:35:29;;;;;;;17.05;9.93;;;;;;;6.41;81.65;99803.84;4466567;31;33170;-87
2022/12/07 10:37:59;;;;;;;19.95;10.80;;;;;;;6.29;82.11;99795.37;4491070;31;34032;-88
2022/12/07 10:40:26;;;;;;;20.88;11.02;;;;;;;5.99;83.37;99802.06;4483583;31;34069;-87
2022/12/07 10:43:12;;;;;;;19.33;10.98;;;;;;;6.01;83.43;99801.38;4491935;31;34255;-88
2022/12/07 10:45:58;;;;;;;17.62;9.98;;;;;;;5.61;84.19;99803.94;4487162;31;34570;-88
2022/12/07 10:48:47;;;;;;;17.48;10.25;;;;;;;5.66;83.35;99797.44;4489912;31;34135;-87
2022/12/07 10:51:27;;;;;;;16.23;8.95;;;;;;;5.74;81.68;99794.44;4496105;31;33591;-87
2022/12/07 10:53:55;;;;;;;16.80;9.63;;;;;;;5.89;82.45;99801.47;4485152;31;33870;-88
2022/12/07 10:56:31;;;;;;;18.65;8.85;;;;;;;6.45;79.98;99785.22;4480814;31;32113;-87
2022/12/07 10:59:23;;;;;;;17.48;9.07;;;;;;;6.03;82.19;99789.50;4499932;31;33132;-88
2022/12/07 11:02:01;;;;;;;17.95;10.00;;;;;;;5.81;81.88;99799.19;4494970;31;34462;-87
2022/12/07 11:04:57;;;;;;;17.08;9.88;;;;;;;5.91;82.11;99794.72;4463012;32;33928;-88
2022/12/07 11:07:46;;;;;;;17.42;9.52;;;;;;;5.89;81.42;99790.25;4488540;31;33885;-88
2022/12/07 11:10:33;;;;;;;19.77;9.50;;;;;;;6.27;81.30;99782.41;4477244;32;33110;-88
2022/12/07 11:13:13;;;;;;;15.23;8.75;;;;;;;6.31;79.59;99780.91;4483918;31;34141;-88
2022/12/07 11:15:46;;;;;;;15.68;8.18;;;;;;;5.96;79.38;99777.03;4490501;31;34671;-87
2022/12/07 11:18:22;;;;;;;13.18;7.90;;;;;;;7.33;74.25;99771.44;4500571;31;33575;-88
2022/12/07 11:21:07;;;;;;;14.02;8.05;;;;;;;7.49;73.22;99774.09;4473356;31;33490;-88
2022/12/07 11:23:50;;;;;;;15.48;8.63;;;;;;;7.84;70.25;99767.41;4468407;32;34256;-88
2022/12/07 11:26:41;;;;;;;17.02;9.60;;;;;;;6.60;75.18;99771.50;4494635;31;33498;-87
2022/12/07 11:29:19;;;;;;;15.25;8.50;;;;;;;7.50;73.61;99768.16;4487353;31;33438;-88
2022/12/07 11:31:58;;;;;;;36.88;16.48;;;;;;;6.35;75.33;99767.44;4479905;32;33778;-88
2022/12/07 11:34:38;;;;;;;23.65;11.07;;;;;;;7.66;72.20;99773.34;4481381;31;34500;-88
2022/12/07 11:37:13;;;;;;;21.80;11.82;;;;;;;8.12;71.68;99768.94;4487317;31;33588;-88
2022/12/07 11:39:49;;;;;;;17.02;9.00;;;;;;;7.87;72.25;99768.47;4480319;32;34381;-88
2022/12/07 11:42:23;;;;;;;14.80;8.43;;;;;;;7.62;72.40;99768.81;4466876;31;32456;-88
2022/12/07 11:45:03;;;;;;;14.70;9.27;;;;;;;7.56;71.43;99772.75;4473077;31;33932;-88
2022/12/07 11:47:38;;;;;;;14.00;8.13;;;;;;;8.18;68.90;99769.28;4495725;31;33605;-88
2022/12/07 11:50:26;;;;;;;14.35;7.70;;;;;;;8.13;70.27;99768.12;4478708;31;34439;-88